createdAt,value
2022-09-07T00:00:47.291Z,66.38
2022-09-07T00:01:47.192Z,66.41
2022-09-07T00:02:47.213Z,66.88
2022-09-07T00:03:47.171Z,65.81
2022-09-07T00:04:47.199Z,65.41
2022-09-07T00:05:47.152Z,68.72
2022-09-07T00:06:47.145Z,68.02
2022-09-07T00:07:47.118Z,67.82
2022-09-07T00:08:47.175Z,67.52
2022-09-07T00:09:47.301Z,68.12
2022-09-07T00:10:47.106Z,70.43
2022-09-07T00:11:47.075Z,70.43
2022-09-07T00:12:47.090Z,71.03
2022-09-07T00:13:47.064Z,72.33
2022-09-07T00:14:47.059Z,72.53
2022-09-07T00:15:47.069Z,72.63
2022-09-07T00:16:47.121Z,72.63
2022-09-07T00:17:47.082Z,73.94
2022-09-07T00:18:47.016Z,74.48
2022-09-07T00:19:47.000Z,74.98
2022-09-07T00:20:47.010Z,74.77
2022-09-07T00:21:46.975Z,74.18
2022-09-07T00:22:47.142Z,74.07
2022-09-07T00:23:46.950Z,74.88
2022-09-07T00:24:47.012Z,73.57
2022-09-07T00:25:49.189Z,73.97
2022-09-07T00:26:46.940Z,75.98
2022-09-07T00:27:46.899Z,73.97
2022-09-07T00:28:46.911Z,71.97
2022-09-07T00:29:46.891Z,72.67
2022-09-07T00:30:46.927Z,73.47
2022-09-07T00:31:46.912Z,74.27
2022-09-07T00:32:46.968Z,74.88
2022-09-07T00:33:46.860Z,72.77
2022-09-07T00:34:46.840Z,73.87
2022-09-07T00:35:46.853Z,75.92
2022-09-07T00:36:46.836Z,76.86
2022-09-07T00:37:46.847Z,79.00
2022-09-07T00:38:46.831Z,80.11
2022-09-07T00:39:46.846Z,81.46
2022-09-07T00:40:46.805Z,81.96
2022-09-07T00:41:46.816Z,81.65
2022-09-07T00:42:46.799Z,80.85
2022-09-07T00:43:46.761Z,81.19
2022-09-07T00:44:46.778Z,81.29
2022-09-07T00:45:46.732Z,81.79
2022-09-07T00:46:46.867Z,81.70
2022-09-07T00:47:46.698Z,82.10
2022-09-07T00:48:46.685Z,82.70
2022-09-07T00:49:46.689Z,82.30
2022-09-07T00:50:46.670Z,82.74
2022-09-07T00:51:46.659Z,82.94
2022-09-07T00:52:46.650Z,83.34
2022-09-07T00:53:46.628Z,82.64
2022-09-07T00:54:46.621Z,84.25
2022-09-07T00:55:46.622Z,84.35
2022-09-07T00:56:46.632Z,85.16
2022-09-07T00:57:46.856Z,83.95
2022-09-07T00:58:46.604Z,85.25
2022-09-07T00:59:46.597Z,85.96
2022-09-07T01:00:46.614Z,84.85
2022-09-07T01:01:46.670Z,84.05
2022-09-07T01:02:46.789Z,84.35
2022-09-07T01:03:46.517Z,85.20
2022-09-07T01:04:46.531Z,85.10
2022-09-07T01:05:46.503Z,85.90
2022-09-07T01:06:46.500Z,85.10
2022-09-07T01:07:49.389Z,86.51
2022-09-07T01:08:46.477Z,87.11
2022-09-07T01:09:46.462Z,86.41
2022-09-07T01:10:46.495Z,86.41
2022-09-07T01:11:46.486Z,86.55
2022-09-07T01:12:46.451Z,88.66
2022-09-07T01:13:46.437Z,88.06
2022-09-07T01:14:47.603Z,88.66
2022-09-07T01:15:46.542Z,89.37
2022-09-07T01:16:46.462Z,88.76
2022-09-07T01:17:46.400Z,89.57
2022-09-07T01:18:46.428Z,88.86
2022-09-07T01:19:46.350Z,89.97
2022-09-07T01:20:46.369Z,91.02
2022-09-07T01:21:46.360Z,90.72
2022-09-07T01:22:46.369Z,90.92
2022-09-07T01:23:46.304Z,90.01
2022-09-07T01:24:46.403Z,90.32
2022-09-07T01:25:46.301Z,90.52
2022-09-07T01:26:46.290Z,89.81
2022-09-07T01:27:46.282Z,89.91
2022-09-07T01:28:46.293Z,91.02
2022-09-07T01:29:46.254Z,90.72
2022-09-07T01:30:46.296Z,92.23
2022-09-07T01:31:46.238Z,92.23
2022-09-07T01:32:46.361Z,91.33
2022-09-07T01:33:46.215Z,92.23
2022-09-07T01:34:46.218Z,92.68
2022-09-07T01:35:46.238Z,92.78
2022-09-07T01:36:46.218Z,92.98
2022-09-07T01:37:46.173Z,91.57
2022-09-07T01:38:46.222Z,92.27
2022-09-07T01:39:46.223Z,92.47
2022-09-07T01:40:46.145Z,92.27
2022-09-07T01:41:46.128Z,91.57
2022-09-07T01:42:46.165Z,92.07
2022-09-07T01:43:46.125Z,92.18
2022-09-07T01:44:46.107Z,92.18
2022-09-07T01:45:46.097Z,93.18
2022-09-07T01:46:46.128Z,93.38
2022-09-07T01:47:46.147Z,93.49
2022-09-07T01:48:46.099Z,93.29
2022-09-07T01:49:46.071Z,93.79
2022-09-07T01:50:46.082Z,93.08
2022-09-07T01:51:46.029Z,91.67
2022-09-07T01:52:46.063Z,91.57
2022-09-07T01:53:45.994Z,91.87
2022-09-07T01:54:46.087Z,91.37
2022-09-07T01:55:46.004Z,92.88
2022-09-07T01:56:46.034Z,92.98
2022-09-07T01:57:45.982Z,93.79
2022-09-07T01:58:46.023Z,94.49
2022-09-07T01:59:45.970Z,93.33
2022-09-07T02:00:45.977Z,90.81
2022-09-07T02:01:45.968Z,91.67
2022-09-07T02:02:46.149Z,91.87
2022-09-07T02:03:45.915Z,92.98
2022-09-07T02:04:45.914Z,92.22
2022-09-07T02:05:45.876Z,91.41
2022-09-07T02:06:45.866Z,91.41
2022-09-07T02:07:45.883Z,92.52
2022-09-07T02:08:47.364Z,92.72
2022-09-07T02:09:45.830Z,92.93
2022-09-07T02:10:45.856Z,93.93
2022-09-07T02:11:45.844Z,93.23
2022-09-07T02:12:45.919Z,93.63
2022-09-07T02:13:45.801Z,94.24
2022-09-07T02:14:49.376Z,94.13
2022-09-07T02:15:45.852Z,94.84
2022-09-07T02:16:45.771Z,95.65
2022-09-07T02:17:45.746Z,94.94
2022-09-07T02:18:45.796Z,94.13
2022-09-07T02:19:45.732Z,94.44
2022-09-07T02:20:45.747Z,94.84
2022-09-07T02:21:45.756Z,94.84
2022-09-07T02:22:45.699Z,95.25
2022-09-07T02:23:46.014Z,94.64
2022-09-07T02:24:45.684Z,94.74
2022-09-07T02:25:45.663Z,93.84
2022-09-07T02:26:45.660Z,94.54
2022-09-07T02:27:45.680Z,94.94
2022-09-07T02:28:45.671Z,95.55
2022-09-07T02:29:45.664Z,94.04
2022-09-07T02:30:45.696Z,94.79
2022-09-07T02:31:45.623Z,94.74
2022-09-07T02:32:45.698Z,94.48
2022-09-07T02:33:45.683Z,95.04
2022-09-07T02:34:45.648Z,95.75
2022-09-07T02:35:45.673Z,96.45
2022-09-07T02:36:45.587Z,96.15
2022-09-07T02:37:45.566Z,95.95
2022-09-07T02:38:45.554Z,95.90
2022-09-07T02:39:45.664Z,96.15
2022-09-07T02:40:45.500Z,96.86
2022-09-07T02:41:45.529Z,95.59
2022-09-07T02:42:45.564Z,95.29
2022-09-07T02:43:45.544Z,96.76
2022-09-07T02:44:45.512Z,97.16
2022-09-07T02:45:45.520Z,97.21
2022-09-07T02:46:48.006Z,96.70
2022-09-07T02:47:45.461Z,96.91
2022-09-07T02:48:45.516Z,96.20
2022-09-07T02:49:45.469Z,96.60
2022-09-07T02:50:45.396Z,96.70
2022-09-07T02:51:45.419Z,97.01
2022-09-07T02:52:45.421Z,97.21
2022-09-07T02:53:45.560Z,97.31
2022-09-07T02:54:45.382Z,97.41
2022-09-07T02:55:45.402Z,97.11
2022-09-07T02:56:45.354Z,97.21
2022-09-07T02:57:45.369Z,97.41
2022-09-07T02:58:45.372Z,97.71
2022-09-07T02:59:45.314Z,97.66
2022-09-07T03:00:45.310Z,97.76
2022-09-07T03:01:45.328Z,98.16
2022-09-07T03:02:45.331Z,98.36
2022-09-07T03:03:45.270Z,98.47
2022-09-07T03:04:45.296Z,98.36
2022-09-07T03:05:45.266Z,98.47
2022-09-07T03:06:45.238Z,98.51
2022-09-07T03:07:45.260Z,98.01
2022-09-07T03:08:45.255Z,98.31
2022-09-07T03:09:45.253Z,98.11
2022-09-07T03:10:45.190Z,97.80
2022-09-07T03:11:45.250Z,97.71
2022-09-07T03:12:45.193Z,97.80
2022-09-07T03:13:45.162Z,97.71
2022-09-07T03:14:45.155Z,97.71
2022-09-07T03:15:45.170Z,98.11
2022-09-07T03:16:45.128Z,98.21
2022-09-07T03:17:45.120Z,98.05
2022-09-07T03:18:45.100Z,98.16
2022-09-07T03:19:45.143Z,98.05
2022-09-07T03:20:45.073Z,98.25
2022-09-07T03:21:45.113Z,98.46
2022-09-07T03:22:45.065Z,98.86
2022-09-07T03:23:47.790Z,98.76
2022-09-07T03:24:45.098Z,98.76
2022-09-07T03:25:45.093Z,98.81
2022-09-07T03:26:45.086Z,99.32
2022-09-07T03:27:45.016Z,99.62
2022-09-07T03:28:45.053Z,99.52
2022-09-07T03:29:44.994Z,99.62
2022-09-07T03:30:45.020Z,99.52
2022-09-07T03:31:44.975Z,99.41
2022-09-07T03:32:44.973Z,99.32
2022-09-07T03:33:44.935Z,99.41
2022-09-07T03:34:44.935Z,99.52
2022-09-07T03:35:44.947Z,99.52
2022-09-07T03:36:44.891Z,99.62
2022-09-07T03:37:44.904Z,99.97
2022-09-07T03:38:44.890Z,99.99
2022-09-07T03:39:44.903Z,99.97
2022-09-07T03:40:44.851Z,99.87
2022-09-07T03:41:44.928Z,99.97
2022-09-07T03:42:44.938Z,99.99
2022-09-07T03:43:44.913Z,99.99
2022-09-07T03:44:44.824Z,99.99
2022-09-07T03:45:44.870Z,99.99
2022-09-07T03:46:44.832Z,99.99
2022-09-07T03:47:44.867Z,99.99
2022-09-07T03:48:44.856Z,99.99
2022-09-07T03:49:44.764Z,99.99
2022-09-07T03:50:44.771Z,99.99
2022-09-07T03:51:44.739Z,99.99
2022-09-07T03:52:44.720Z,99.99
2022-09-07T03:53:44.794Z,99.99
2022-09-07T03:54:44.713Z,99.99
2022-09-07T03:55:44.746Z,99.99
2022-09-07T03:56:44.747Z,99.99
2022-09-07T03:57:44.709Z,99.99
2022-09-07T03:58:44.886Z,99.99
2022-09-07T03:59:44.658Z,99.99
2022-09-07T04:00:44.652Z,99.99
2022-09-07T04:01:44.687Z,99.99
2022-09-07T04:02:44.901Z,99.99
2022-09-07T04:03:44.621Z,99.99
2022-09-07T04:04:44.631Z,99.99
2022-09-07T04:05:44.600Z,99.99
2022-09-07T04:06:44.582Z,99.99
2022-09-07T04:07:44.580Z,99.99
2022-09-07T04:08:44.597Z,99.99
2022-09-07T04:09:44.550Z,99.99
2022-09-07T04:10:44.550Z,99.99
2022-09-07T04:11:44.653Z,99.99
2022-09-07T04:12:44.755Z,99.99
2022-09-07T04:13:44.514Z,99.99
2022-09-07T04:14:44.479Z,99.99
2022-09-07T04:15:44.522Z,99.99
2022-09-07T04:16:44.513Z,99.99
2022-09-07T04:17:44.476Z,99.99
2022-09-07T04:18:44.488Z,99.99
2022-09-07T04:19:44.465Z,99.99
2022-09-07T04:20:44.475Z,99.99
2022-09-07T04:21:44.426Z,99.99
2022-09-07T04:22:44.447Z,99.99
2022-09-07T04:23:44.448Z,99.99
2022-09-07T04:24:44.470Z,99.99
2022-09-07T04:25:44.324Z,99.99
2022-09-07T04:26:44.325Z,99.99
2022-09-07T04:27:44.356Z,99.99
2022-09-07T04:28:44.289Z,99.99
2022-09-07T04:29:44.291Z,99.99
2022-09-07T04:30:44.315Z,99.99
2022-09-07T04:31:44.267Z,99.99
2022-09-07T04:32:44.245Z,99.99
2022-09-07T04:33:44.240Z,99.99
2022-09-07T04:34:44.238Z,99.99
2022-09-07T04:35:44.249Z,99.99
2022-09-07T04:36:44.232Z,99.99
2022-09-07T04:37:44.197Z,99.99
2022-09-07T04:38:44.199Z,99.99
2022-09-07T04:39:44.250Z,99.99
2022-09-07T04:40:44.172Z,99.99
2022-09-07T04:41:44.167Z,99.99
2022-09-07T04:42:44.147Z,99.99
2022-09-07T04:43:44.180Z,99.99
2022-09-07T04:44:44.142Z,99.99
2022-09-07T04:45:44.163Z,99.99
2022-09-07T04:46:44.121Z,99.99
2022-09-07T04:47:44.094Z,99.99
2022-09-07T04:48:44.064Z,99.99
2022-09-07T04:49:44.067Z,99.99
2022-09-07T04:50:44.054Z,99.99
2022-09-07T04:51:44.057Z,99.99
2022-09-07T04:52:44.042Z,99.99
2022-09-07T04:53:44.016Z,99.99
2022-09-07T04:54:44.006Z,99.99
2022-09-07T04:55:44.010Z,99.99
2022-09-07T04:56:43.994Z,99.99
2022-09-07T04:57:43.978Z,99.99
2022-09-07T04:58:43.956Z,99.99
2022-09-07T04:59:44.012Z,99.99
2022-09-07T05:00:43.939Z,99.99
2022-09-07T05:01:44.042Z,99.99
2022-09-07T05:02:44.006Z,99.99
2022-09-07T05:03:43.943Z,99.99
2022-09-07T05:04:43.901Z,99.99
2022-09-07T05:05:44.034Z,99.99
2022-09-07T05:06:43.893Z,99.99
2022-09-07T05:07:43.889Z,99.99
2022-09-07T05:08:43.850Z,99.99
2022-09-07T05:09:43.857Z,99.99
2022-09-07T05:10:43.838Z,99.99
2022-09-07T05:11:43.827Z,99.99
2022-09-07T05:12:43.818Z,99.99
2022-09-07T05:13:43.824Z,99.99
2022-09-07T05:14:43.792Z,99.99
2022-09-07T05:15:43.781Z,99.99
2022-09-07T05:16:43.906Z,99.99
2022-09-07T05:17:43.779Z,99.99
2022-09-07T05:18:43.740Z,99.99
2022-09-07T05:19:43.744Z,99.99
2022-09-07T05:20:43.708Z,99.99
2022-09-07T05:21:43.714Z,99.99
2022-09-07T05:22:43.729Z,99.99
2022-09-07T05:23:43.946Z,99.99
2022-09-07T05:24:43.676Z,99.99
2022-09-07T05:25:43.662Z,99.99
2022-09-07T05:26:43.660Z,99.99
2022-09-07T05:27:43.684Z,99.99
2022-09-07T05:28:43.629Z,99.99
2022-09-07T05:31:43.625Z,99.99
2022-09-07T05:32:43.604Z,99.99
2022-09-07T05:34:43.607Z,99.99
2022-09-07T05:35:43.591Z,99.99
2022-09-07T05:36:43.542Z,99.99
2022-09-07T05:37:43.586Z,99.99
2022-09-07T05:38:43.561Z,99.99
2022-09-07T05:39:43.604Z,99.99
2022-09-07T05:40:43.510Z,99.99
2022-09-07T05:41:43.513Z,99.99
2022-09-07T05:42:43.704Z,99.99
2022-09-07T05:44:43.899Z,99.99
2022-09-07T05:45:43.575Z,99.99
2022-09-07T05:46:43.438Z,99.99
2022-09-07T05:47:43.467Z,99.99
2022-09-07T05:48:43.453Z,99.99
2022-09-07T05:49:43.425Z,99.99
2022-09-07T05:50:43.403Z,99.99
2022-09-07T05:51:43.409Z,99.99
2022-09-07T05:52:43.435Z,99.99
2022-09-07T05:53:43.414Z,99.99
2022-09-07T05:54:43.376Z,99.99
2022-09-07T05:55:43.379Z,99.99
2022-09-07T05:56:43.341Z,99.99
2022-09-07T05:57:43.328Z,99.99
2022-09-07T05:58:43.362Z,99.99
2022-09-07T05:59:43.341Z,99.99
2022-09-07T06:00:43.319Z,99.99
2022-09-07T06:01:43.363Z,99.99
2022-09-07T06:02:43.307Z,99.99
2022-09-07T06:03:43.287Z,99.99
2022-09-07T06:04:43.351Z,99.99
2022-09-07T06:05:43.239Z,99.99
2022-09-07T06:06:47.882Z,99.99
2022-09-07T06:07:43.231Z,99.99
2022-09-07T06:08:43.217Z,99.99
2022-09-07T06:11:43.186Z,99.99
2022-09-07T06:12:45.537Z,99.99
2022-09-07T06:13:43.176Z,99.92
2022-09-07T06:14:43.267Z,99.99
2022-09-07T06:15:43.139Z,99.99
2022-09-07T06:16:43.187Z,99.67
2022-09-07T06:17:43.127Z,99.47
2022-09-07T06:18:43.191Z,99.57
2022-09-07T06:19:43.119Z,99.47
2022-09-07T06:20:43.057Z,99.47
2022-09-07T06:21:43.095Z,99.47
2022-09-07T06:22:43.058Z,99.27
2022-09-07T06:23:43.046Z,99.16
2022-09-07T06:24:43.204Z,99.22
2022-09-07T06:25:43.055Z,99.42
2022-09-07T06:26:43.008Z,99.62
2022-09-07T06:27:43.040Z,99.83
2022-09-07T06:28:42.999Z,99.83
2022-09-07T06:29:43.009Z,99.62
2022-09-07T06:30:42.962Z,99.62
2022-09-07T06:32:43.150Z,99.27
2022-09-07T06:33:42.931Z,99.48
2022-09-07T06:34:42.944Z,98.87
2022-09-07T06:35:42.928Z,99.38
2022-09-07T06:36:42.891Z,99.27
2022-09-07T06:37:42.895Z,99.02
2022-09-07T06:38:42.926Z,99.13
2022-09-07T06:39:43.014Z,99.13
2022-09-07T06:40:42.856Z,98.93
2022-09-07T06:42:42.950Z,98.68
2022-09-07T06:43:45.579Z,98.37
2022-09-07T06:44:42.845Z,98.07
2022-09-07T06:45:42.881Z,97.27
2022-09-07T06:47:42.794Z,97.02
2022-09-07T06:48:44.488Z,96.31
2022-09-07T06:49:42.770Z,96.61
2022-09-07T06:50:42.752Z,96.92
2022-09-07T06:51:42.755Z,97.12
2022-09-07T06:53:44.481Z,95.90
2022-09-07T06:55:42.695Z,96.11
2022-09-07T06:56:42.757Z,96.56
2022-09-07T06:57:42.689Z,96.47
2022-09-07T06:58:42.684Z,96.06
2022-09-07T06:59:42.663Z,95.86
2022-09-07T07:00:42.723Z,95.15
2022-09-07T07:01:42.636Z,94.81
2022-09-07T07:02:42.654Z,95.66
2022-09-07T07:03:42.642Z,95.11
2022-09-07T07:04:42.612Z,95.21
2022-09-07T07:05:42.627Z,95.81
2022-09-07T07:06:42.587Z,96.01
2022-09-07T07:07:42.585Z,95.37
2022-09-07T07:08:42.610Z,94.46
2022-09-07T07:09:42.708Z,94.16
2022-09-07T07:10:42.544Z,92.75
2022-09-07T07:11:42.519Z,94.16
2022-09-07T07:13:48.090Z,93.66
2022-09-07T07:14:49.002Z,94.12
2022-09-07T07:15:48.993Z,93.61
2022-09-07T07:16:49.004Z,92.55
2022-09-07T07:17:56.148Z,93.35
2022-09-07T07:18:49.084Z,91.94
2022-09-07T07:19:48.951Z,92.91
2022-09-07T07:20:48.961Z,93.96
2022-09-07T07:22:10.658Z,92.35
2022-09-07T07:22:48.950Z,93.46
2022-09-07T07:23:48.917Z,92.95
2022-09-07T07:24:48.960Z,92.85
2022-09-07T07:25:48.899Z,93.76
2022-09-07T07:26:48.905Z,93.66
2022-09-07T07:27:48.879Z,94.26
2022-09-07T07:29:04.571Z,92.80
2022-09-07T07:29:48.921Z,92.66
2022-09-07T07:30:48.927Z,91.05
2022-09-07T07:31:48.876Z,90.41
2022-09-07T07:32:48.808Z,90.61
2022-09-07T07:33:48.875Z,89.66
2022-09-07T07:34:48.871Z,91.27
2022-09-07T07:35:48.777Z,89.26
2022-09-07T07:36:48.826Z,89.86
2022-09-07T07:37:48.743Z,89.06
2022-09-07T07:41:56.558Z,89.60
2022-09-07T07:42:48.717Z,90.61
2022-09-07T07:43:48.691Z,89.70
2022-09-07T07:44:48.878Z,90.15
2022-09-07T07:45:56.032Z,91.55
2022-09-07T07:46:48.721Z,91.15
2022-09-07T07:47:48.638Z,92.40
2022-09-07T07:48:48.636Z,92.86
2022-09-07T07:49:49.446Z,92.06
2022-09-07T07:50:48.624Z,92.16
2022-09-07T07:52:50.276Z,91.30
2022-09-07T07:53:48.599Z,91.30
2022-09-07T07:54:48.573Z,92.20
2022-09-07T07:55:48.585Z,92.50
2022-09-07T07:56:48.548Z,92.71
2022-09-07T07:57:48.546Z,92.26
2022-09-07T07:58:48.534Z,92.76
2022-09-07T07:59:48.515Z,91.75
2022-09-07T08:00:54.900Z,91.46
2022-09-07T08:01:48.729Z,91.61
2022-09-07T08:02:48.539Z,92.52
2022-09-07T08:03:48.486Z,90.50
2022-09-07T08:04:48.628Z,89.90
2022-09-07T08:05:48.473Z,91.11
2022-09-07T08:06:48.454Z,90.91
2022-09-07T08:07:48.437Z,90.91
2022-09-07T08:08:48.489Z,90.95
2022-09-07T08:09:48.406Z,92.96
2022-09-07T08:10:48.417Z,91.15
2022-09-07T08:11:48.419Z,91.55
2022-09-07T08:12:48.411Z,91.55
2022-09-07T08:13:48.360Z,92.06
2022-09-07T08:14:48.416Z,92.11
2022-09-07T08:15:48.404Z,90.34
2022-09-07T08:16:48.369Z,90.55
2022-09-07T08:17:48.341Z,91.61
2022-09-07T08:18:48.319Z,92.22
2022-09-07T08:19:48.303Z,90.20
2022-09-07T08:20:48.968Z,89.90
2022-09-07T08:21:48.296Z,90.61
2022-09-07T08:22:48.280Z,91.55
2022-09-07T08:23:48.253Z,90.61
2022-09-07T08:24:48.262Z,90.61
2022-09-07T08:25:48.260Z,91.11
2022-09-07T08:26:48.261Z,90.95
2022-09-07T08:27:48.259Z,90.85
2022-09-07T08:28:48.206Z,89.95
2022-09-07T08:29:48.192Z,90.55
2022-09-07T08:30:48.189Z,91.30
2022-09-07T08:31:48.259Z,91.30
2022-09-07T08:32:48.208Z,91.50
2022-09-07T08:33:48.146Z,92.00
2022-09-07T08:34:48.151Z,91.70
2022-09-07T08:35:48.140Z,90.49
2022-09-07T08:36:48.150Z,91.39
2022-09-07T08:37:48.105Z,91.39
2022-09-07T08:38:48.129Z,91.19
2022-09-07T08:39:48.137Z,92.20
2022-09-07T08:40:48.078Z,91.60
2022-09-07T08:41:48.087Z,91.90
2022-09-07T08:42:48.065Z,91.39
2022-09-07T08:43:49.251Z,90.19
2022-09-07T08:44:48.054Z,90.59
2022-09-07T08:45:48.020Z,90.34
2022-09-07T08:46:48.118Z,90.25
2022-09-07T08:47:48.067Z,90.81
2022-09-07T08:48:47.996Z,91.91
2022-09-07T08:49:47.989Z,91.27
2022-09-07T08:50:47.979Z,91.27
2022-09-07T08:51:47.981Z,89.22
2022-09-07T08:52:47.969Z,88.21
2022-09-07T08:53:47.939Z,87.01
2022-09-07T08:54:47.942Z,87.60
2022-09-07T08:55:47.925Z,87.41
2022-09-07T08:57:48.769Z,88.87
2022-09-07T08:58:49.608Z,85.66
2022-09-07T08:59:47.950Z,88.27
2022-09-07T09:00:48.261Z,87.87
2022-09-07T09:02:27.153Z,86.76
2022-09-07T09:03:28.559Z,86.86
2022-09-07T09:05:47.923Z,85.86
2022-09-07T09:06:48.003Z,87.06
2022-09-07T09:07:47.932Z,85.66
2022-09-07T09:08:47.792Z,86.26
2022-09-07T09:09:47.765Z,86.16
2022-09-07T09:10:47.856Z,85.25
2022-09-07T09:11:47.744Z,86.26
2022-09-07T09:12:47.758Z,86.36
2022-09-07T09:13:47.743Z,87.16
2022-09-07T09:14:47.739Z,86.26
2022-09-07T09:15:47.781Z,85.96
2022-09-07T09:16:47.707Z,86.96
2022-09-07T09:17:47.737Z,86.02
2022-09-07T09:18:47.715Z,85.46
2022-09-07T09:19:47.670Z,87.46
2022-09-07T09:20:47.659Z,86.16
2022-09-07T09:21:47.641Z,85.46
2022-09-07T09:22:47.659Z,85.19
2022-09-07T09:23:47.627Z,83.79
2022-09-07T09:24:47.627Z,85.39
2022-09-07T09:25:47.616Z,85.30
2022-09-07T09:26:47.678Z,85.70
2022-09-07T09:27:47.631Z,86.54
2022-09-07T09:28:47.623Z,87.15
2022-09-07T09:29:47.564Z,85.53
2022-09-07T09:30:47.625Z,87.35
2022-09-07T09:31:47.596Z,87.45
2022-09-07T09:32:47.663Z,86.65
2022-09-07T09:33:47.534Z,86.54
2022-09-07T09:34:47.545Z,86.34
2022-09-07T09:35:47.489Z,87.95
2022-09-07T09:36:47.514Z,86.85
2022-09-07T09:37:47.536Z,87.45
2022-09-07T09:38:47.482Z,88.35
2022-09-07T09:39:51.029Z,88.35
2022-09-07T09:40:47.450Z,88.05
2022-09-07T09:41:47.460Z,87.04
2022-09-07T09:42:47.457Z,88.45
2022-09-07T09:43:47.472Z,87.49
2022-09-07T09:44:47.459Z,88.65
2022-09-07T09:46:47.542Z,88.35
2022-09-07T09:47:47.458Z,89.15
2022-09-07T09:48:47.372Z,90.11
2022-09-07T09:49:47.350Z,90.00
2022-09-07T09:52:51.619Z,89.70
2022-09-07T09:53:47.394Z,88.59
2022-09-07T09:54:47.416Z,89.40
2022-09-07T09:55:47.292Z,89.70
2022-09-07T09:56:47.293Z,89.90
2022-09-07T09:59:04.635Z,91.41
2022-09-07T10:00:06.973Z,90.20
2022-09-07T10:04:47.211Z,89.06
2022-09-07T10:05:47.175Z,89.56
2022-09-07T10:06:47.296Z,90.16
2022-09-07T10:07:47.238Z,91.32
2022-09-07T10:08:47.194Z,91.02
2022-09-07T10:09:47.135Z,91.42
2022-09-07T10:10:47.145Z,90.48
2022-09-07T10:12:47.116Z,88.67
2022-09-07T10:13:47.185Z,86.52
2022-09-07T10:14:47.088Z,87.12
2022-09-07T10:15:47.114Z,88.43
2022-09-07T10:16:47.098Z,88.53
2022-09-07T10:17:47.043Z,87.48
2022-09-07T10:18:47.074Z,86.78
2022-09-07T10:19:47.020Z,86.33
2022-09-07T10:20:47.023Z,87.14
2022-09-07T10:21:47.230Z,87.44
2022-09-07T10:22:51.342Z,84.49
2022-09-07T10:23:46.997Z,85.30
2022-09-07T10:24:47.008Z,85.10
2022-09-07T10:25:46.964Z,86.50
2022-09-07T10:26:46.981Z,86.85
2022-09-07T10:27:46.936Z,84.25
2022-09-07T10:29:46.977Z,86.25
2022-09-07T10:30:46.931Z,87.16
2022-09-07T10:31:46.947Z,85.05
2022-09-07T10:32:47.229Z,86.16
2022-09-07T10:34:25.728Z,86.60
2022-09-07T10:34:46.923Z,86.96
2022-09-07T10:35:46.923Z,85.49
2022-09-07T10:36:46.920Z,85.55
2022-09-07T10:37:46.841Z,84.29
2022-09-07T10:38:46.841Z,85.60
2022-09-07T10:39:46.865Z,87.20
2022-09-07T10:40:46.821Z,84.79
2022-09-07T10:41:46.795Z,85.19
2022-09-07T10:43:46.851Z,84.69
2022-09-07T10:44:47.272Z,85.13
2022-09-07T10:45:46.777Z,87.00
2022-09-07T10:47:02.188Z,86.24
2022-09-07T10:47:46.757Z,86.24
2022-09-07T10:48:46.750Z,85.08
2022-09-07T10:50:46.730Z,87.38
2022-09-07T10:51:46.705Z,86.28
2022-09-07T10:52:46.705Z,85.27
2022-09-07T10:53:46.801Z,85.17
2022-09-07T10:54:46.737Z,87.08
2022-09-07T10:55:46.665Z,84.37
2022-09-07T10:56:46.672Z,85.44
2022-09-07T10:57:49.112Z,83.03
2022-09-07T10:59:03.053Z,83.93
2022-09-07T11:00:46.756Z,84.17
2022-09-07T11:01:46.752Z,78.79
2022-09-07T11:03:24.795Z,78.79
2022-09-07T11:03:46.772Z,78.43
2022-09-07T11:04:46.762Z,79.27
2022-09-07T11:05:46.561Z,80.93
2022-09-07T11:06:46.535Z,77.69
2022-09-07T11:07:46.540Z,76.15
2022-09-07T11:09:46.939Z,77.89
2022-09-07T11:10:46.489Z,76.29
2022-09-07T11:12:02.849Z,77.12
2022-09-07T11:12:46.507Z,77.22
2022-09-07T11:14:09.300Z,77.06
2022-09-07T11:14:46.593Z,78.75
2022-09-07T11:15:46.511Z,80.09
2022-09-07T11:16:53.707Z,77.86
2022-09-07T11:17:49.425Z,76.15
2022-09-07T11:18:46.448Z,76.59
2022-09-07T11:19:46.488Z,79.49
2022-09-07T11:20:46.393Z,78.49
2022-09-07T11:22:01.807Z,77.89
2022-09-07T11:22:46.373Z,78.66
2022-09-07T11:23:46.582Z,77.95
2022-09-07T11:24:47.197Z,78.36
2022-09-07T11:25:46.828Z,77.95
2022-09-07T11:26:46.325Z,76.79
2022-09-07T11:27:46.338Z,78.43
2022-09-07T11:28:46.417Z,81.17
2022-09-07T11:29:46.383Z,79.97
2022-09-07T11:30:46.416Z,79.86
2022-09-07T11:31:46.363Z,80.61
2022-09-07T11:32:46.443Z,81.91
2022-09-07T11:34:23.735Z,82.41
2022-09-07T11:34:47.151Z,81.55
2022-09-07T11:35:46.276Z,82.65
2022-09-07T11:36:46.252Z,84.35
2022-09-07T11:37:46.242Z,83.79
2022-09-07T11:38:46.293Z,83.19
2022-09-07T11:39:46.289Z,84.49
2022-09-07T11:40:46.388Z,82.35
2022-09-07T11:41:46.238Z,82.51
2022-09-07T11:42:46.210Z,83.51
2022-09-07T11:43:46.210Z,82.81
2022-09-07T11:44:46.327Z,83.51
2022-09-07T11:45:46.185Z,81.87
2022-09-07T11:46:46.213Z,80.30
2022-09-07T11:47:46.229Z,80.77
2022-09-07T11:48:46.168Z,80.87
2022-09-07T11:49:51.509Z,80.93
2022-09-07T11:50:47.397Z,79.53
2022-09-07T11:51:46.277Z,79.19
2022-09-07T11:52:46.070Z,79.63
2022-09-07T11:53:46.206Z,78.13
2022-09-07T11:54:46.104Z,79.03
2022-09-07T11:55:46.070Z,79.13
2022-09-07T11:56:46.338Z,79.09
2022-09-07T11:57:46.034Z,77.69
2022-09-07T11:58:46.078Z,77.36
2022-09-07T11:59:46.068Z,76.35
2022-09-07T12:00:46.133Z,75.42
2022-09-07T12:01:46.317Z,75.12
2022-09-07T12:02:58.971Z,75.18
2022-09-07T12:03:46.094Z,74.58
2022-09-07T12:04:46.136Z,75.92
2022-09-07T12:05:45.976Z,75.98
2022-09-07T12:06:45.922Z,76.34
2022-09-07T12:07:45.906Z,75.25
2022-09-07T12:08:45.900Z,73.61
2022-09-07T12:09:45.900Z,74.35
2022-09-07T12:10:45.880Z,76.28
2022-09-07T12:11:45.949Z,76.92
2022-09-07T12:12:45.869Z,78.22
2022-09-07T12:13:45.880Z,75.78
2022-09-07T12:14:45.830Z,74.32
2022-09-07T12:15:45.969Z,75.12
2022-09-07T12:16:45.857Z,76.82
2022-09-07T12:17:45.811Z,77.15
2022-09-07T12:18:45.799Z,78.05
2022-09-07T12:19:45.838Z,77.62
2022-09-07T12:20:45.831Z,77.68
2022-09-07T12:21:45.781Z,73.95
2022-09-07T12:22:45.974Z,74.41
2022-09-07T12:23:45.805Z,74.81
2022-09-07T12:24:45.767Z,74.38
2022-09-07T12:25:45.761Z,71.81
2022-09-07T12:26:45.733Z,71.48
2022-09-07T12:27:45.748Z,70.85
2022-09-07T12:28:45.742Z,69.82
2022-09-07T12:29:46.574Z,69.36
2022-09-07T12:30:45.764Z,68.46
2022-09-07T12:31:57.665Z,69.06
2022-09-07T12:32:54.286Z,69.79
2022-09-07T12:33:45.660Z,69.92
2022-09-07T12:34:45.758Z,68.79
2022-09-07T12:35:45.649Z,68.93
2022-09-07T12:36:45.784Z,68.86
2022-09-07T12:37:45.772Z,66.88
2022-09-07T12:38:45.760Z,64.53
2022-09-07T12:39:45.754Z,62.95
2022-09-07T12:40:45.667Z,61.46
2022-09-07T12:41:47.422Z,61.30
2022-09-07T12:42:45.615Z,59.95
2022-09-07T12:43:45.621Z,59.70
2022-09-07T12:44:45.564Z,58.51
2022-09-07T12:45:45.654Z,57.90
2022-09-07T12:46:46.793Z,57.29
2022-09-07T12:47:45.551Z,58.05
2022-09-07T12:48:45.535Z,58.05
2022-09-07T12:49:45.637Z,57.29
2022-09-07T12:50:45.653Z,58.46
2022-09-07T12:52:09.172Z,62.74
2022-09-07T12:52:45.497Z,63.96
2022-09-07T12:53:45.484Z,66.21
2022-09-07T12:54:45.492Z,66.97
2022-09-07T12:56:45.643Z,70.12
2022-09-07T12:57:46.497Z,70.62
2022-09-07T12:58:45.580Z,70.12
2022-09-07T12:59:45.436Z,70.39
2022-09-07T13:00:45.460Z,69.36
2022-09-07T13:01:45.477Z,65.65
2022-09-07T13:02:45.402Z,64.83
2022-09-07T13:03:52.644Z,59.09
2022-09-07T13:04:45.377Z,60.45
2022-09-07T13:05:45.324Z,57.73
2022-09-07T13:07:45.435Z,57.32
2022-09-07T13:08:45.687Z,52.16
2022-09-07T13:09:45.289Z,52.85
2022-09-07T13:10:45.269Z,52.87
2022-09-07T13:11:45.761Z,53.44
2022-09-07T13:13:00.633Z,52.91
2022-09-07T13:14:45.234Z,53.50
2022-09-07T13:15:45.322Z,53.89
2022-09-07T13:17:45.318Z,51.92
2022-09-07T13:18:45.224Z,53.20
2022-09-07T13:19:45.190Z,55.40
2022-09-07T13:20:45.170Z,55.45
2022-09-07T13:21:45.168Z,55.01
2022-09-07T13:22:45.620Z,57.44
2022-09-07T13:23:45.777Z,57.84
2022-09-07T13:24:47.156Z,56.85
2022-09-07T13:25:45.142Z,59.67
2022-09-07T13:26:49.304Z,59.53
2022-09-07T13:27:45.124Z,61.29
2022-09-07T13:28:45.098Z,59.51
2022-09-07T13:29:45.183Z,58.42